Buoy 51523

sailwx.info

Track history (hours):
 
Tides and Currents Weather Stations Pressure Air Temp Water Temp Dewpoint Dewpoint Depression Visibility Wind Speed Wind Dir Waves Ship Positions

Drifting buoy 51523

Last reported at 2016-Feb-14 03:45 UTC. Time now 2016-Feb-14 05:56 UTC.
Position N 16°20' E 168°06'.

Water temperature 26.5 ° C

Date/timePositionNaut miles runAvg speedWind from/ knotsBaromVisibWave heightAir tempDewpointWater temp
2016-Feb-14 03:45N 16°20' E 168°06'3 1.5 26.5
2016-Feb-14 02:00N 16°21' E 168°09'4 1.5 26.4
2016-Feb-13 23:15N 16°23' E 168°13'3 1.3 26.4
2016-Feb-13 20:45N 16°24' E 168°16'0 0.1 26.4
2016-Feb-13 19:45N 16°24' E 168°16'1 2.3 26.4
2016-Feb-13 19:30N 16°25' E 168°16'312.9 26.4
2016-Feb-13 19:15N 16°26' E 168°19'1 1.0 26.4
2016-Feb-13 18:00N 16°27' E 168°20'1 4.9 26.4
2016-Feb-13 17:45N 16°26' E 168°19'0 0.0 26.4
2016-Feb-13 17:30N 16°26' E 168°19'4 3.6 26.4
2016-Feb-13 16:30N 16°29' E 168°21'0 0.0 26.4
2016-Feb-13 15:00N 16°29' E 168°21'0 0.0 26.4
2016-Feb-13 14:45N 16°29' E 168°21'6 1.5 26.4
2016-Feb-13 10:45N 16°32' E 168°26'2 2.6 26.4
2016-Feb-13 10:00N 16°32' E 168°28'2 7.7 26.4
2016-Feb-13 09:45N 16°32' E 168°26'2 3.7 26.4
2016-Feb-13 09:15N 16°32' E 168°28'0 0.0 26.4
2016-Feb-13 09:00N 16°32' E 168°28'3 3.6 26.4
2016-Feb-13 08:15N 16°34' E 168°30'1 0.6 26.4
2016-Feb-13 06:45N 16°35' E 168°31'0 0.0 26.4
2016-Feb-13 06:30N 16°35' E 168°31'4 4.1 26.4
2016-Feb-13 05:30N 16°38' E 168°34'0 0.0 26.5
2016-Feb-13 04:00N 16°38' E 168°34'2 1.2 26.5
2016-Feb-13 02:15N 16°40' E 168°35'4 1.4 26.5
2016-Feb-12 23:30N 16°43' E 168°38'0 0.0 26.5
2016-Feb-12 22:45N 16°43' E 168°38'2 1.3 26.5
2016-Feb-12 21:15N 16°44' E 168°39'1 5.5 26.5
2016-Feb-12 21:00N 16°45' E 168°39'0 0.5 26.5
2016-Feb-12 20:00N 16°45' E 168°40'2 9.3 26.5
2016-Feb-12 19:45N 16°47' E 168°41'6 0.6 26.5
2016-Feb-12 09:30N 16°52' E 168°44'0 0.0 26.9
2016-Feb-12 09:15N 16°52' E 168°44'1 0.9 26.9
2016-Feb-12 07:45N 16°53' E 168°46'0 0.0 27.1
2016-Feb-12 07:30N 16°53' E 168°46'0 0.0 27.2
2016-Feb-12 07:15N 16°53' E 168°46'0 1.1 27.2
2016-Feb-12 07:00N 16°53' E 168°45'1 0.5 27.3
2016-Feb-12 05:45N 16°54' E 168°46'1 0.4 28.1
2016-Feb-12 04:15N 16°53' E 168°47'0 0.0 28.3
2016-Feb-12 04:00N 16°53' E 168°47'0 0.3 28.3
2016-Feb-12 02:30N 16°53' E 168°47'0 0.0 27.3
2016-Feb-12 02:15N 16°53' E 168°47'3 0.9 27.2
2016-Feb-11 23:15N 16°53' E 168°50'0 0.0 26.6
2016-Feb-11 23:00N 16°53' E 168°50'3 0.7 26.6
2016-Feb-11 19:00N 16°53' E 168°53'0 0.0 26.5
2016-Feb-11 18:45N 16°53' E 168°53'1 0.9 26.5
2016-Feb-11 17:15N 16°54' E 168°54'0 0.0 26.5
2016-Feb-11 16:45N 16°54' E 168°54'0 0.0 26.5
2016-Feb-11 15:15N 16°54' E 168°54'3 0.8 26.5
2016-Feb-11 11:30N 16°54' E 168°57'1 1.7 26.5
2016-Feb-11 10:45N 16°54' E 168°58'1 5.1 26.5
2016-Feb-11 10:30N 16°54' E 168°57'1 1.7 26.5
2016-Feb-11 09:45N 16°54' E 168°58'3 0.5 26.5
2016-Feb-11 04:45N 16°54' E 169°01'1 0.6 26.7
2016-Feb-11 02:45N 16°54' E 169°02'9 0.9 26.6
2016-Feb-10 17:00N 16°55' E 169°11'5 0.8 26.4
2016-Feb-10 11:00N 16°55' E 169°16'3 1.2 26.4
2016-Feb-10 08:30N 16°55' E 169°19'0 0.0 26.4
2016-Feb-10 08:15N 16°55' E 169°19'1 0.4 26.4
2016-Feb-10 06:45N 16°55' E 169°20'0 0.0 26.5
2016-Feb-10 06:30N 16°55' E 169°20'1 0.6 26.5
2016-Feb-10 05:15N 16°55' E 169°21'2 3.1 26.6
2016-Feb-10 04:30N 16°55' E 169°23'0 0.0 26.6
2016-Feb-10 04:15N 16°55' E 169°23'8 0.9 26.6
2016-Feb-09 19:45N 16°56' E 169°31'0 0.0 26.4
2016-Feb-09 19:30N 16°56' E 169°31'0 0.0 26.4
2016-Feb-09 19:00N 16°56' E 169°31'0 0.0 26.4
2016-Feb-09 18:45N 16°56' E 169°31'2 1.1 26.4
2016-Feb-09 17:15N 16°56' E 169°33'0 0.0 26.4
2016-Feb-09 17:00N 16°56' E 169°33'1 0.9 26.4
2016-Feb-09 15:45N 16°56' E 169°34'0 0.0 26.4
2016-Feb-09 15:30N 16°56' E 169°34'2 1.0 26.4
2016-Feb-09 14:00N 16°55' E 169°35'4 1.1 26.4
2016-Feb-09 10:30N 16°56' E 169°39'0 0.0 26.4
2016-Feb-09 09:45N 16°56' E 169°39'1 1.2 26.4
2016-Feb-09 08:45N 16°56' E 169°41'2 1.6 26.4
2016-Feb-09 07:15N 16°57' E 169°43'0 0.0 26.4
2016-Feb-09 07:00N 16°57' E 169°43'1 0.4 26.4
2016-Feb-09 05:15N 16°57' E 169°44'3 5.3 26.5
2016-Feb-09 04:45N 16°57' E 169°47'0 0.0 26.5
2016-Feb-09 04:30N 16°57' E 169°47'4 2.5 26.5
2016-Feb-09 03:00N 16°59' E 169°50'414.8 26.5
2016-Feb-09 02:45N 16°57' E 169°47'4 2.5 26.5
2016-Feb-09 01:15N 16°59' E 169°50'1 0.5 26.4
2016-Feb-08 23:15N 16°59' E 169°51'0 0.0 26.4
2016-Feb-08 22:30N 16°59' E 169°51'1 0.9 26.4
2016-Feb-08 21:45N 16°59' E 169°52'2 2.8 26.4
2016-Feb-08 21:00N 16°59' E 169°54'0 0.0 26.4
2016-Feb-08 20:45N 16°59' E 169°54'0 0.0 26.4
2016-Feb-08 19:15N 16°59' E 169°54'0 0.0 26.3
2016-Feb-08 19:00N 16°59' E 169°54'1 2.5 26.3
2016-Feb-08 18:45N 16°59' E 169°54'0 0.0 26.3
2016-Feb-08 18:30N 16°59' E 169°54'3 1.3 26.3
2016-Feb-08 15:45N 17°00' E 169°58'2 1.5 26.3
2016-Feb-08 14:15N 17°01' E 169°60'0 0.0 26.4
2016-Feb-08 14:00N 17°01' E 169°60'5 1.5 26.4
2016-Feb-08 10:45N 17°02' E 170°05'0 0.5 26.4
2016-Feb-08 10:00N 17°02' E 170°06'0 1.6 26.4
2016-Feb-08 09:45N 17°02' E 170°05'0 0.8 26.4
2016-Feb-08 09:15N 17°02' E 170°06'0 0.0 26.4
2016-Feb-08 09:00N 17°02' E 170°06'3 2.0 26.4
2016-Feb-08 07:45N 17°02' E 170°08'0 0.0 26.5
2016-Feb-08 06:30N 17°02' E 170°08'0 0.0 26.5
2016-Feb-08 06:15N 17°02' E 170°08'2 1.2 26.5
2016-Feb-08 04:45N 17°02' E 170°10'1 1.0 26.5
2016-Feb-08 03:15N 17°02' E 170°12'0 0.0 26.5
2016-Feb-08 03:00N 17°02' E 170°12'2 1.1 26.5
2016-Feb-08 01:30N 17°02' E 170°13'2 1.4 26.5
2016-Feb-07 23:45N 17°02' E 170°16'0 0.0 26.5
2016-Feb-07 23:30N 17°02' E 170°16'0 0.0 26.5
2016-Feb-07 23:00N 17°02' E 170°16'0 0.0 26.5
2016-Feb-07 22:45N 17°02' E 170°16'2 1.3 26.5
2016-Feb-07 21:15N 17°01' E 170°18'0 0.0 26.4
2016-Feb-07 21:00N 17°01' E 170°18'2 1.3 26.4
2016-Feb-07 19:15N 17°01' E 170°20'1 2.1 26.4
2016-Feb-07 19:00N 17°01' E 170°21'0 0.0 26.4
2016-Feb-07 18:45N 17°01' E 170°21'2 1.6 26.4
2016-Feb-07 17:30N 17°00' E 170°23'3 2.1 26.4
2016-Feb-07 16:00N 17°00' E 170°26'0 0.0 26.4
2016-Feb-07 15:45N 17°00' E 170°26'0 0.0 26.5
2016-Feb-07 14:15N 17°00' E 170°26'4 1.5 26.5
2016-Feb-07 11:15N 16°60' E 170°30'0 0.0 26.5
2016-Feb-07 11:00N 16°60' E 170°30'1 1.5 26.5
2016-Feb-07 10:30N 16°60' E 170°31'0 0.0 26.5
2016-Feb-07 10:15N 16°60' E 170°31'1 0.7 26.5
2016-Feb-07 08:45N 16°60' E 170°32'2 2.7 26.4
2016-Feb-07 08:00N 16°59' E 170°34'0 0.0 26.4
2016-Feb-07 06:45N 16°59' E 170°34'0 0.5 26.4
2016-Feb-07 06:30N 16°59' E 170°34'0 0.0 26.4
2016-Feb-07 06:15N 16°59' E 170°34'2 1.5 26.4
2016-Feb-07 05:00N 16°59' E 170°36'2 1.0 26.4
2016-Feb-07 03:30N 16°59' E 170°38'0 0.0 26.4
2016-Feb-07 03:15N 16°59' E 170°38'2 1.5 26.4
2016-Feb-07 01:45N 16°59' E 170°40'0 0.0 26.4
2016-Feb-07 01:30N 16°59' E 170°40'5 2.3 26.4
2016-Feb-06 23:15N 16°58' E 170°45'0 0.0 26.4
2016-Feb-06 23:00N 16°58' E 170°45'0 0.0 26.4
2016-Feb-06 21:30N 16°58' E 170°45'0 0.0 26.4
2016-Feb-06 20:45N 16°58' E 170°45'2 2.5 26.4
2016-Feb-06 19:45N 16°59' E 170°48'0 1.0 26.4
2016-Feb-06 19:30N 16°59' E 170°48'2 6.0 26.4
2016-Feb-06 19:15N 16°59' E 170°50'0 0.0 26.4
2016-Feb-06 18:15N 16°59' E 170°50'0 0.0 26.4
2016-Feb-06 17:45N 16°59' E 170°50'0 0.0 26.4
2016-Feb-06 17:30N 16°59' E 170°50'2 1.9 26.4
2016-Feb-06 16:15N 16°60' E 170°52'0 0.0 26.4
2016-Feb-06 16:00N 16°60' E 170°52'2 1.1 26.4
2016-Feb-06 14:30N 17°01' E 170°54'0 0.0 26.4
2016-Feb-06 14:15N 17°01' E 170°54'4 1.1 26.4
2016-Feb-06 10:45N 16°60' E 170°58'0 0.0 26.4
2016-Feb-06 10:00N 16°60' E 170°58'0 0.0 26.4
2016-Feb-06 09:45N 16°60' E 170°58'0 0.0 26.4
2016-Feb-06 09:00N 16°60' E 170°58'2 2.4 26.4
2016-Feb-06 08:15N 16°59' E 170°59'0 0.0 26.4
2016-Feb-06 08:00N 16°59' E 170°59'0 0.4 26.4
2016-Feb-06 07:00N 16°59' E 170°60'0 2.0 26.4
2016-Feb-06 06:45N 16°59' E 170°60'1 1.0 26.4
2016-Feb-06 05:15N 16°58' E 171°01'0 0.0 26.4
2016-Feb-06 05:00N 16°58' E 171°01'2 1.7 26.4
2016-Feb-06 03:45N 16°58' E 171°03'0 0.0 26.5
2016-Feb-06 03:30N 16°58' E 171°03'2 1.1 26.5
2016-Feb-06 02:00N 16°57' E 171°05'0 0.0 26.4
2016-Feb-06 01:45N 16°57' E 171°05'4 1.8 26.4
2016-Feb-05 23:30N 16°58' E 171°09'0 0.0 26.5
2016-Feb-05 22:00N 16°58' E 171°09'0 0.5 26.4
2016-Feb-05 21:45N 16°58' E 171°09'3 1.3 26.4
2016-Feb-05 19:45N 16°57' E 171°12'0 0.0 26.4
2016-Feb-05 19:30N 16°57' E 171°12'1 1.5 26.4
2016-Feb-05 18:45N 16°58' E 171°13'0 0.0 26.4
2016-Feb-05 18:30N 16°58' E 171°13'3 6.4 26.4
2016-Feb-05 18:00N 16°59' E 171°16'0 0.0 26.4
2016-Feb-05 17:45N 16°59' E 171°16'0 0.0 26.4
2016-Feb-05 17:00N 16°59' E 171°16'0 0.0 26.4
2016-Feb-05 16:45N 16°59' E 171°16'7 0.9 26.4
2016-Feb-05 09:30N 17°01' E 171°23'0 0.0 26.5
2016-Feb-05 09:15N 17°01' E 171°23'2 2.3 26.5
2016-Feb-05 08:30N 17°02' E 171°24'0 0.2 26.5
2016-Feb-05 07:15N 17°02' E 171°24'0 1.7 26.6
2016-Feb-05 07:00N 17°02' E 171°25'3 0.9 26.6
2016-Feb-05 03:45N 17°04' E 171°27'1 0.7 26.7
2016-Feb-05 02:15N 17°04' E 171°28'0 0.0 26.6
2016-Feb-05 02:00N 17°04' E 171°28'3 1.1 26.6
2016-Feb-04 23:00N 17°07' E 171°30'1 0.4 26.5
2016-Feb-04 20:30N 17°08' E 171°31'0 0.1 26.5
2016-Feb-04 19:45N 17°08' E 171°31'1 2.5 26.5
2016-Feb-04 19:15N 17°08' E 171°32'0 0.0 26.5
2016-Feb-04 19:00N 17°08' E 171°32'0 0.0 26.5
2016-Feb-04 17:30N 17°08' E 171°32'0 0.0 26.5
2016-Feb-04 17:15N 17°08' E 171°32'1 1.3 26.5
2016-Feb-04 16:45N 17°08' E 171°31'1 2.6 26.5
2016-Feb-04 16:30N 17°08' E 171°32'0 0.0 26.5
2016-Feb-04 14:45N 17°08' E 171°32'3 0.6 26.5
2016-Feb-04 10:30N 17°08' E 171°34'0 0.0 26.5
2016-Feb-04 09:45N 17°08' E 171°34'0 1.2 26.5
2016-Feb-04 09:30N 17°08' E 171°35'0 0.3 26.5
2016-Feb-04 09:00N 17°08' E 171°35'0 0.0 26.5
2016-Feb-04 08:45N 17°08' E 171°35'1 1.2 26.5
2016-Feb-04 08:00N 17°08' E 171°36'0 0.0 26.5
2016-Feb-04 07:15N 17°08' E 171°36'1 0.4 26.5
2016-Feb-04 04:00N 17°08' E 171°37'0 0.0 26.5
2016-Feb-04 03:45N 17°08' E 171°37'   26.5
Track history (hours):
 
Tides and Currents Weather Stations Pressure Air Temp Water Temp Dewpoint Dewpoint Depression Visibility Wind Speed Wind Dir Waves Ship Positions

Drifting buoy 51523

Last reported at 2016-Feb-14 03:45 UTC. Time now 2016-Feb-14 05:56 UTC.
Position N 16°20' E 168°06'.

Water temperature 26.5 ° C

Date/timePositionNaut miles runAvg speedWind from/ knotsBaromVisibWave heightAir tempDewpointWater temp
2016-Feb-14 03:45N 16°20' E 168°06'3 1.5 26.5
2016-Feb-14 02:00N 16°21' E 168°09'4 1.5 26.4
2016-Feb-13 23:15N 16°23' E 168°13'3 1.3 26.4
2016-Feb-13 20:45N 16°24' E 168°16'0 0.1 26.4
2016-Feb-13 19:45N 16°24' E 168°16'1 2.3 26.4
2016-Feb-13 19:30N 16°25' E 168°16'312.9 26.4
2016-Feb-13 19:15N 16°26' E 168°19'1 1.0 26.4
2016-Feb-13 18:00N 16°27' E 168°20'1 4.9 26.4
2016-Feb-13 17:45N 16°26' E 168°19'0 0.0 26.4
2016-Feb-13 17:30N 16°26' E 168°19'4 3.6 26.4
2016-Feb-13 16:30N 16°29' E 168°21'0 0.0 26.4
2016-Feb-13 15:00N 16°29' E 168°21'0 0.0 26.4
2016-Feb-13 14:45N 16°29' E 168°21'6 1.5 26.4
2016-Feb-13 10:45N 16°32' E 168°26'2 2.6 26.4
2016-Feb-13 10:00N 16°32' E 168°28'2 7.7 26.4
2016-Feb-13 09:45N 16°32' E 168°26'2 3.7 26.4
2016-Feb-13 09:15N 16°32' E 168°28'0 0.0 26.4
2016-Feb-13 09:00N 16°32' E 168°28'3 3.6 26.4
2016-Feb-13 08:15N 16°34' E 168°30'1 0.6 26.4
2016-Feb-13 06:45N 16°35' E 168°31'0 0.0 26.4
2016-Feb-13 06:30N 16°35' E 168°31'4 4.1 26.4
2016-Feb-13 05:30N 16°38' E 168°34'0 0.0 26.5
2016-Feb-13 04:00N 16°38' E 168°34'2 1.2 26.5
2016-Feb-13 02:15N 16°40' E 168°35'4 1.4 26.5
2016-Feb-12 23:30N 16°43' E 168°38'0 0.0 26.5
2016-Feb-12 22:45N 16°43' E 168°38'2 1.3 26.5
2016-Feb-12 21:15N 16°44' E 168°39'1 5.5 26.5
2016-Feb-12 21:00N 16°45' E 168°39'0 0.5 26.5
2016-Feb-12 20:00N 16°45' E 168°40'2 9.3 26.5
2016-Feb-12 19:45N 16°47' E 168°41'6 0.6 26.5
2016-Feb-12 09:30N 16°52' E 168°44'0 0.0 26.9
2016-Feb-12 09:15N 16°52' E 168°44'1 0.9 26.9
2016-Feb-12 07:45N 16°53' E 168°46'0 0.0 27.1
2016-Feb-12 07:30N 16°53' E 168°46'0 0.0 27.2
2016-Feb-12 07:15N 16°53' E 168°46'0 1.1 27.2
2016-Feb-12 07:00N 16°53' E 168°45'1 0.5 27.3
2016-Feb-12 05:45N 16°54' E 168°46'1 0.4 28.1
2016-Feb-12 04:15N 16°53' E 168°47'0 0.0 28.3
2016-Feb-12 04:00N 16°53' E 168°47'0 0.3 28.3
2016-Feb-12 02:30N 16°53' E 168°47'0 0.0 27.3
2016-Feb-12 02:15N 16°53' E 168°47'3 0.9 27.2
2016-Feb-11 23:15N 16°53' E 168°50'0 0.0 26.6
2016-Feb-11 23:00N 16°53' E 168°50'3 0.7 26.6
2016-Feb-11 19:00N 16°53' E 168°53'0 0.0 26.5
2016-Feb-11 18:45N 16°53' E 168°53'1 0.9 26.5
2016-Feb-11 17:15N 16°54' E 168°54'0 0.0 26.5
2016-Feb-11 16:45N 16°54' E 168°54'0 0.0 26.5
2016-Feb-11 15:15N 16°54' E 168°54'3 0.8 26.5
2016-Feb-11 11:30N 16°54' E 168°57'1 1.7 26.5
2016-Feb-11 10:45N 16°54' E 168°58'1 5.1 26.5
2016-Feb-11 10:30N 16°54' E 168°57'1 1.7 26.5
2016-Feb-11 09:45N 16°54' E 168°58'3 0.5 26.5
2016-Feb-11 04:45N 16°54' E 169°01'1 0.6 26.7
2016-Feb-11 02:45N 16°54' E 169°02'9 0.9 26.6
2016-Feb-10 17:00N 16°55' E 169°11'5 0.8 26.4
2016-Feb-10 11:00N 16°55' E 169°16'3 1.2 26.4
2016-Feb-10 08:30N 16°55' E 169°19'0 0.0 26.4
2016-Feb-10 08:15N 16°55' E 169°19'1 0.4 26.4
2016-Feb-10 06:45N 16°55' E 169°20'0 0.0 26.5
2016-Feb-10 06:30N 16°55' E 169°20'1 0.6 26.5
2016-Feb-10 05:15N 16°55' E 169°21'2 3.1 26.6
2016-Feb-10 04:30N 16°55' E 169°23'0 0.0 26.6
2016-Feb-10 04:15N 16°55' E 169°23'8 0.9 26.6
2016-Feb-09 19:45N 16°56' E 169°31'0 0.0 26.4
2016-Feb-09 19:30N 16°56' E 169°31'0 0.0 26.4
2016-Feb-09 19:00N 16°56' E 169°31'0 0.0 26.4
2016-Feb-09 18:45N 16°56' E 169°31'2 1.1 26.4
2016-Feb-09 17:15N 16°56' E 169°33'0 0.0 26.4
2016-Feb-09 17:00N 16°56' E 169°33'1 0.9 26.4
2016-Feb-09 15:45N 16°56' E 169°34'0 0.0 26.4
2016-Feb-09 15:30N 16°56' E 169°34'2 1.0 26.4
2016-Feb-09 14:00N 16°55' E 169°35'4 1.1 26.4
2016-Feb-09 10:30N 16°56' E 169°39'0 0.0 26.4
2016-Feb-09 09:45N 16°56' E 169°39'1 1.2 26.4
2016-Feb-09 08:45N 16°56' E 169°41'2 1.6 26.4
2016-Feb-09 07:15N 16°57' E 169°43'0 0.0 26.4
2016-Feb-09 07:00N 16°57' E 169°43'1 0.4 26.4
2016-Feb-09 05:15N 16°57' E 169°44'3 5.3 26.5
2016-Feb-09 04:45N 16°57' E 169°47'0 0.0 26.5
2016-Feb-09 04:30N 16°57' E 169°47'4 2.5 26.5
2016-Feb-09 03:00N 16°59' E 169°50'414.8 26.5
2016-Feb-09 02:45N 16°57' E 169°47'4 2.5 26.5
2016-Feb-09 01:15N 16°59' E 169°50'1 0.5 26.4
2016-Feb-08 23:15N 16°59' E 169°51'0 0.0 26.4
2016-Feb-08 22:30N 16°59' E 169°51'1 0.9 26.4
2016-Feb-08 21:45N 16°59' E 169°52'2 2.8 26.4
2016-Feb-08 21:00N 16°59' E 169°54'0 0.0 26.4
2016-Feb-08 20:45N 16°59' E 169°54'0 0.0 26.4
2016-Feb-08 19:15N 16°59' E 169°54'0 0.0 26.3
2016-Feb-08 19:00N 16°59' E 169°54'1 2.5 26.3
2016-Feb-08 18:45N 16°59' E 169°54'0 0.0 26.3
2016-Feb-08 18:30N 16°59' E 169°54'3 1.3 26.3
2016-Feb-08 15:45N 17°00' E 169°58'2 1.5 26.3
2016-Feb-08 14:15N 17°01' E 169°60'0 0.0 26.4
2016-Feb-08 14:00N 17°01' E 169°60'5 1.5 26.4
2016-Feb-08 10:45N 17°02' E 170°05'0 0.5 26.4
2016-Feb-08 10:00N 17°02' E 170°06'0 1.6 26.4
2016-Feb-08 09:45N 17°02' E 170°05'0 0.8 26.4
2016-Feb-08 09:15N 17°02' E 170°06'0 0.0 26.4
2016-Feb-08 09:00N 17°02' E 170°06'3 2.0 26.4
2016-Feb-08 07:45N 17°02' E 170°08'0 0.0 26.5
2016-Feb-08 06:30N 17°02' E 170°08'0 0.0 26.5
2016-Feb-08 06:15N 17°02' E 170°08'2 1.2 26.5
2016-Feb-08 04:45N 17°02' E 170°10'1 1.0 26.5
2016-Feb-08 03:15N 17°02' E 170°12'0 0.0 26.5
2016-Feb-08 03:00N 17°02' E 170°12'2 1.1 26.5
2016-Feb-08 01:30N 17°02' E 170°13'2 1.4 26.5
2016-Feb-07 23:45N 17°02' E 170°16'0 0.0 26.5
2016-Feb-07 23:30N 17°02' E 170°16'0 0.0 26.5
2016-Feb-07 23:00N 17°02' E 170°16'0 0.0 26.5
2016-Feb-07 22:45N 17°02' E 170°16'2 1.3 26.5
2016-Feb-07 21:15N 17°01' E 170°18'0 0.0 26.4
2016-Feb-07 21:00N 17°01' E 170°18'2 1.3 26.4
2016-Feb-07 19:15N 17°01' E 170°20'1 2.1 26.4
2016-Feb-07 19:00N 17°01' E 170°21'0 0.0 26.4
2016-Feb-07 18:45N 17°01' E 170°21'2 1.6 26.4
2016-Feb-07 17:30N 17°00' E 170°23'3 2.1 26.4
2016-Feb-07 16:00N 17°00' E 170°26'0 0.0 26.4
2016-Feb-07 15:45N 17°00' E 170°26'0 0.0 26.5
2016-Feb-07 14:15N 17°00' E 170°26'4 1.5 26.5
2016-Feb-07 11:15N 16°60' E 170°30'0 0.0 26.5
2016-Feb-07 11:00N 16°60' E 170°30'1 1.5 26.5
2016-Feb-07 10:30N 16°60' E 170°31'0 0.0 26.5
2016-Feb-07 10:15N 16°60' E 170°31'1 0.7 26.5
2016-Feb-07 08:45N 16°60' E 170°32'2 2.7 26.4
2016-Feb-07 08:00N 16°59' E 170°34'0 0.0 26.4
2016-Feb-07 06:45N 16°59' E 170°34'0 0.5 26.4
2016-Feb-07 06:30N 16°59' E 170°34'0 0.0 26.4
2016-Feb-07 06:15N 16°59' E 170°34'2 1.5 26.4
2016-Feb-07 05:00N 16°59' E 170°36'2 1.0 26.4
2016-Feb-07 03:30N 16°59' E 170°38'0 0.0 26.4
2016-Feb-07 03:15N 16°59' E 170°38'2 1.5 26.4
2016-Feb-07 01:45N 16°59' E 170°40'0 0.0 26.4
2016-Feb-07 01:30N 16°59' E 170°40'5 2.3 26.4
2016-Feb-06 23:15N 16°58' E 170°45'0 0.0 26.4
2016-Feb-06 23:00N 16°58' E 170°45'0 0.0 26.4
2016-Feb-06 21:30N 16°58' E 170°45'0 0.0 26.4
2016-Feb-06 20:45N 16°58' E 170°45'2 2.5 26.4
2016-Feb-06 19:45N 16°59' E 170°48'0 1.0 26.4
2016-Feb-06 19:30N 16°59' E 170°48'2 6.0 26.4
2016-Feb-06 19:15N 16°59' E 170°50'0 0.0 26.4
2016-Feb-06 18:15N 16°59' E 170°50'0 0.0 26.4
2016-Feb-06 17:45N 16°59' E 170°50'0 0.0 26.4
2016-Feb-06 17:30N 16°59' E 170°50'2 1.9 26.4
2016-Feb-06 16:15N 16°60' E 170°52'0 0.0 26.4
2016-Feb-06 16:00N 16°60' E 170°52'2 1.1 26.4
2016-Feb-06 14:30N 17°01' E 170°54'0 0.0 26.4
2016-Feb-06 14:15N 17°01' E 170°54'4 1.1 26.4
2016-Feb-06 10:45N 16°60' E 170°58'0 0.0 26.4
2016-Feb-06 10:00N 16°60' E 170°58'0 0.0 26.4
2016-Feb-06 09:45N 16°60' E 170°58'0 0.0 26.4
2016-Feb-06 09:00N 16°60' E 170°58'2 2.4 26.4
2016-Feb-06 08:15N 16°59' E 170°59'0 0.0 26.4
2016-Feb-06 08:00N 16°59' E 170°59'0 0.4 26.4
2016-Feb-06 07:00N 16°59' E 170°60'0 2.0 26.4
2016-Feb-06 06:45N 16°59' E 170°60'1 1.0 26.4
2016-Feb-06 05:15N 16°58' E 171°01'0 0.0 26.4
2016-Feb-06 05:00N 16°58' E 171°01'2 1.7 26.4
2016-Feb-06 03:45N 16°58' E 171°03'0 0.0 26.5
2016-Feb-06 03:30N 16°58' E 171°03'2 1.1 26.5
2016-Feb-06 02:00N 16°57' E 171°05'0 0.0 26.4
2016-Feb-06 01:45N 16°57' E 171°05'4 1.8 26.4
2016-Feb-05 23:30N 16°58' E 171°09'0 0.0 26.5
2016-Feb-05 22:00N 16°58' E 171°09'0 0.5 26.4
2016-Feb-05 21:45N 16°58' E 171°09'3 1.3 26.4
2016-Feb-05 19:45N 16°57' E 171°12'0 0.0 26.4
2016-Feb-05 19:30N 16°57' E 171°12'1 1.5 26.4
2016-Feb-05 18:45N 16°58' E 171°13'0 0.0 26.4
2016-Feb-05 18:30N 16°58' E 171°13'3 6.4 26.4
2016-Feb-05 18:00N 16°59' E 171°16'0 0.0 26.4
2016-Feb-05 17:45N 16°59' E 171°16'0 0.0 26.4
2016-Feb-05 17:00N 16°59' E 171°16'0 0.0 26.4
2016-Feb-05 16:45N 16°59' E 171°16'7 0.9 26.4
2016-Feb-05 09:30N 17°01' E 171°23'0 0.0 26.5
2016-Feb-05 09:15N 17°01' E 171°23'2 2.3 26.5
2016-Feb-05 08:30N 17°02' E 171°24'0 0.2 26.5
2016-Feb-05 07:15N 17°02' E 171°24'0 1.7 26.6
2016-Feb-05 07:00N 17°02' E 171°25'3 0.9 26.6
2016-Feb-05 03:45N 17°04' E 171°27'1 0.7 26.7
2016-Feb-05 02:15N 17°04' E 171°28'0 0.0 26.6
2016-Feb-05 02:00N 17°04' E 171°28'3 1.1 26.6
2016-Feb-04 23:00N 17°07' E 171°30'1 0.4 26.5
2016-Feb-04 20:30N 17°08' E 171°31'0 0.1 26.5
2016-Feb-04 19:45N 17°08' E 171°31'1 2.5 26.5
2016-Feb-04 19:15N 17°08' E 171°32'0 0.0 26.5
2016-Feb-04 19:00N 17°08' E 171°32'0 0.0 26.5
2016-Feb-04 17:30N 17°08' E 171°32'0 0.0 26.5
2016-Feb-04 17:15N 17°08' E 171°32'1 1.3 26.5
2016-Feb-04 16:45N 17°08' E 171°31'1 2.6 26.5
2016-Feb-04 16:30N 17°08' E 171°32'0 0.0 26.5
2016-Feb-04 14:45N 17°08' E 171°32'3 0.6 26.5
2016-Feb-04 10:30N 17°08' E 171°34'0 0.0 26.5
2016-Feb-04 09:45N 17°08' E 171°34'0 1.2 26.5
2016-Feb-04 09:30N 17°08' E 171°35'0 0.3 26.5
2016-Feb-04 09:00N 17°08' E 171°35'0 0.0 26.5
2016-Feb-04 08:45N 17°08' E 171°35'1 1.2 26.5
2016-Feb-04 08:00N 17°08' E 171°36'0 0.0 26.5
2016-Feb-04 07:15N 17°08' E 171°36'1 0.4 26.5
2016-Feb-04 04:00N 17°08' E 171°37'0 0.0 26.5
2016-Feb-04 03:45N 17°08' E 171°37'   26.5

Dump ship's entire track history